createdAt,value
2022-11-16T00:01:45.260Z,7.04
2022-11-16T00:04:13.370Z,6.99
2022-11-16T00:06:41.932Z,7.02
2022-11-16T00:09:26.632Z,6.95
2022-11-16T00:11:56.704Z,6.94
2022-11-16T00:14:27.174Z,6.92
2022-11-16T00:16:57.004Z,6.88
2022-11-16T00:19:26.385Z,6.84
2022-11-16T00:21:55.635Z,6.91
2022-11-16T00:24:24.378Z,6.78
2022-11-16T00:26:54.352Z,6.84
2022-11-16T00:29:25.284Z,6.87
2022-11-16T00:31:54.084Z,6.87
2022-11-16T00:34:24.012Z,6.87
2022-11-16T00:36:52.239Z,6.83
2022-11-16T00:39:20.889Z,6.83
2022-11-16T00:41:49.395Z,6.76
2022-11-16T00:44:17.963Z,6.69
2022-11-16T00:46:46.058Z,6.68
2022-11-16T00:49:14.100Z,6.66
2022-11-16T00:51:43.505Z,6.63
2022-11-16T00:54:11.561Z,6.55
2022-11-16T00:56:41.200Z,6.53
2022-11-16T00:59:09.344Z,6.50
2022-11-16T01:01:37.373Z,6.43
2022-11-16T01:04:05.776Z,6.47
2022-11-16T01:06:33.891Z,6.46
2022-11-16T01:09:03.298Z,6.47
2022-11-16T01:11:48.798Z,6.48
2022-11-16T01:14:17.423Z,6.40
2022-11-16T01:16:45.379Z,6.35
2022-11-16T01:19:13.383Z,6.36
2022-11-16T01:21:41.360Z,6.31
2022-11-16T01:24:10.729Z,6.36
2022-11-16T01:26:38.773Z,6.34
2022-11-16T01:29:06.761Z,6.38
2022-11-16T01:31:34.734Z,6.36
2022-11-16T01:34:02.772Z,6.28
2022-11-16T01:36:30.809Z,6.29
2022-11-16T01:38:58.807Z,6.25
2022-11-16T01:41:28.302Z,6.29
2022-11-16T01:43:59.623Z,6.24
2022-11-16T01:46:28.457Z,6.28
2022-11-16T01:49:04.364Z,6.24
2022-11-16T01:51:33.020Z,6.26
2022-11-16T01:54:03.856Z,6.28
2022-11-16T01:56:34.611Z,6.30
2022-11-16T01:59:02.846Z,6.25
2022-11-16T02:01:30.836Z,6.29
2022-11-16T02:03:58.910Z,6.24
2022-11-16T02:06:44.866Z,6.21
2022-11-16T02:09:51.311Z,6.19
2022-11-16T02:12:43.641Z,6.12
2022-11-16T02:15:21.555Z,6.14
2022-11-16T02:17:57.499Z,6.11
2022-11-16T02:20:52.703Z,6.06
2022-11-16T02:24:02.605Z,6.05
2022-11-16T02:26:48.442Z,6.07
2022-11-16T02:29:23.553Z,6.08
2022-11-16T02:31:56.394Z,6.00
2022-11-16T02:34:26.583Z,6.00
2022-11-16T02:36:57.917Z,5.98
2022-11-16T02:39:29.259Z,5.94
2022-11-16T02:42:00.574Z,6.01
2022-11-16T02:44:33.687Z,5.95
2022-11-16T02:47:06.451Z,5.94
2022-11-16T02:49:37.762Z,5.98
2022-11-16T02:52:06.120Z,5.91
2022-11-16T02:54:34.175Z,5.94
2022-11-16T02:57:36.741Z,5.97
2022-11-16T03:00:07.634Z,5.92
2022-11-16T03:02:40.698Z,5.98
2022-11-16T03:05:12.656Z,5.95
2022-11-16T03:07:47.505Z,5.95
2022-11-16T03:10:39.851Z,5.96
2022-11-16T03:13:10.404Z,5.96
2022-11-16T03:15:41.846Z,5.96
2022-11-16T03:18:10.211Z,5.98
2022-11-16T03:20:40.666Z,5.96
2022-11-16T03:23:12.172Z,6.01
2022-11-16T03:25:46.522Z,5.96
2022-11-16T03:28:21.003Z,5.97
2022-11-16T03:30:53.772Z,5.94
2022-11-16T03:33:26.167Z,5.95
2022-11-16T03:35:57.944Z,5.92
2022-11-16T03:38:28.424Z,5.92
2022-11-16T03:41:00.460Z,5.95
2022-11-16T03:43:29.340Z,5.88
2022-11-16T03:45:59.000Z,5.88
2022-11-16T03:48:27.147Z,5.93
2022-11-16T03:50:55.163Z,5.82
2022-11-16T03:53:23.166Z,5.92
2022-11-16T03:55:51.155Z,5.86
2022-11-16T03:58:19.142Z,5.84
2022-11-16T04:00:47.240Z,5.84
2022-11-16T04:03:16.515Z,5.85
2022-11-16T04:06:01.207Z,5.81
2022-11-16T04:08:46.761Z,5.79
2022-11-16T04:11:33.368Z,5.83
2022-11-16T04:14:19.270Z,5.76
2022-11-16T04:17:05.024Z,5.80
2022-11-16T04:19:57.744Z,5.70
2022-11-16T04:22:49.043Z,5.68
2022-11-16T04:25:22.291Z,5.73
2022-11-16T04:28:08.087Z,5.69
2022-11-16T04:30:50.023Z,5.69
2022-11-16T04:33:35.781Z,5.76
2022-11-16T04:36:23.090Z,5.68
2022-11-16T04:38:51.194Z,5.72
2022-11-16T04:41:33.132Z,5.70
2022-11-16T04:44:01.145Z,5.69
2022-11-16T04:46:46.544Z,5.71
2022-11-16T04:49:14.551Z,5.63
2022-11-16T04:51:43.895Z,5.70
2022-11-16T04:54:11.817Z,5.61
2022-11-16T04:56:39.791Z,5.80
2022-11-16T04:59:07.778Z,5.70
2022-11-16T05:01:53.385Z,5.76
2022-11-16T05:04:21.332Z,5.78
2022-11-16T05:06:50.739Z,5.76
2022-11-16T05:09:18.920Z,5.71
2022-11-16T05:11:46.869Z,5.65
2022-11-16T05:14:14.958Z,5.64
2022-11-16T05:16:43.015Z,5.80
2022-11-16T05:19:28.482Z,6.08
2022-11-16T05:21:57.840Z,6.75
2022-11-16T05:24:33.863Z,6.73
2022-11-16T05:27:01.930Z,6.74
2022-11-16T05:29:30.189Z,6.57
2022-11-16T05:31:58.462Z,6.56
2022-11-16T05:34:26.465Z,6.38
2022-11-16T05:36:54.823Z,6.34
2022-11-16T05:39:24.767Z,6.38
2022-11-16T05:41:53.284Z,6.24
2022-11-16T05:44:21.419Z,6.55
2022-11-16T05:46:49.601Z,6.56
2022-11-16T05:49:18.186Z,6.45
2022-11-16T05:51:47.520Z,6.56
2022-11-16T05:54:18.651Z,6.51
2022-11-16T05:56:48.661Z,6.26
2022-11-16T05:59:18.675Z,6.38
2022-11-16T06:01:47.765Z,6.30
2022-11-16T06:04:16.275Z,6.61
2022-11-16T06:06:44.306Z,6.44
2022-11-16T06:09:14.005Z,6.58
2022-11-16T06:11:42.176Z,6.49
2022-11-16T06:14:11.545Z,6.47
2022-11-16T06:16:39.579Z,6.46
2022-11-16T06:19:07.588Z,6.30
2022-11-16T06:21:35.610Z,6.45
2022-11-16T06:24:08.864Z,6.61
2022-11-16T06:26:37.077Z,6.59
2022-11-16T06:29:05.511Z,6.55
2022-11-16T06:31:35.044Z,6.30
2022-11-16T06:34:03.112Z,6.43
2022-11-16T06:36:31.123Z,6.43
2022-11-16T06:39:00.195Z,6.45
2022-11-16T06:41:28.191Z,6.32
2022-11-16T06:43:56.239Z,6.11
2022-11-16T06:46:25.385Z,6.04
2022-11-16T06:48:54.764Z,5.89
2022-11-16T06:51:22.672Z,5.87
2022-11-16T06:53:53.757Z,5.87
2022-11-16T06:56:21.810Z,5.79
2022-11-16T06:58:53.280Z,5.80
2022-11-16T07:01:22.246Z,5.80
2022-11-16T07:03:50.159Z,5.85
2022-11-16T07:06:19.492Z,5.79
2022-11-16T07:08:47.501Z,5.76
2022-11-16T07:11:15.457Z,5.71
2022-11-16T07:13:43.375Z,5.80
2022-11-16T07:16:12.744Z,5.77
2022-11-16T07:18:41.878Z,5.81
2022-11-16T07:21:11.621Z,5.82
2022-11-16T07:23:41.365Z,5.83
2022-11-16T07:26:10.601Z,5.89
2022-11-16T07:28:43.394Z,5.88
2022-11-16T07:31:15.642Z,5.79
2022-11-16T07:33:43.674Z,5.94
2022-11-16T07:36:15.088Z,5.96
2022-11-16T07:38:44.468Z,5.94
2022-11-16T07:41:14.843Z,5.96
2022-11-16T07:43:44.381Z,5.92
2022-11-16T07:49:08.461Z,5.86
2022-11-16T07:51:39.250Z,5.94
2022-11-16T07:54:08.712Z,5.90
2022-11-16T07:56:36.672Z,5.91
2022-11-16T07:59:05.963Z,5.98
2022-11-16T08:01:34.340Z,5.89
2022-11-16T08:04:02.786Z,5.94
2022-11-16T08:06:32.844Z,5.97
2022-11-16T08:09:00.945Z,5.97
2022-11-16T08:11:30.319Z,5.94
2022-11-16T08:13:59.160Z,5.87
2022-11-16T08:16:27.171Z,5.90
2022-11-16T08:18:55.177Z,6.00
2022-11-16T08:21:23.173Z,5.97
2022-11-16T08:23:58.171Z,5.93
2022-11-16T08:26:27.055Z,5.96
2022-11-16T08:28:57.259Z,5.98
2022-11-16T08:31:27.359Z,5.99
2022-11-16T08:33:56.615Z,6.05
2022-11-16T08:36:24.958Z,6.00
2022-11-16T08:38:53.895Z,6.00
2022-11-16T08:41:22.003Z,6.01
2022-11-16T08:43:50.663Z,6.05
2022-11-16T08:46:20.696Z,5.90
2022-11-16T08:48:49.042Z,5.98
2022-11-16T08:51:20.129Z,5.99
2022-11-16T08:53:49.481Z,5.93
2022-11-16T08:56:19.217Z,6.05
2022-11-16T08:58:50.257Z,5.92
2022-11-16T09:01:23.791Z,5.78
2022-11-16T09:03:53.079Z,5.89
2022-11-16T09:06:21.716Z,5.93
2022-11-16T09:08:49.798Z,5.91
2022-11-16T09:11:20.190Z,5.95
2022-11-16T09:13:49.751Z,5.79
2022-11-16T09:16:20.688Z,5.84
2022-11-16T09:18:51.240Z,5.83
2022-11-16T09:21:20.601Z,5.80
2022-11-16T09:23:48.699Z,5.84
2022-11-16T09:26:20.541Z,5.79
2022-11-16T09:28:48.940Z,5.80
2022-11-16T09:31:21.988Z,5.80
2022-11-16T09:33:52.891Z,5.83
2022-11-16T09:36:21.388Z,5.88
2022-11-16T09:41:51.613Z,5.87
2022-11-16T09:44:43.792Z,5.91
2022-11-16T09:47:17.435Z,5.85
2022-11-16T09:49:49.984Z,5.86
2022-11-16T09:52:26.150Z,5.87
2022-11-16T09:54:55.965Z,5.84
2022-11-16T09:57:30.471Z,5.84
2022-11-16T10:00:01.965Z,5.79
2022-11-16T10:02:35.791Z,5.82
2022-11-16T10:05:14.813Z,5.77
2022-11-16T10:07:45.951Z,5.79
2022-11-16T10:10:15.717Z,5.89
2022-11-16T10:12:49.788Z,5.85
2022-11-16T10:15:35.480Z,5.89
2022-11-16T10:18:14.124Z,5.83
2022-11-16T10:20:55.035Z,5.89
2022-11-16T10:23:32.692Z,5.84
2022-11-16T10:26:10.580Z,5.85
2022-11-16T10:28:52.502Z,5.90
2022-11-16T10:31:30.710Z,5.95
2022-11-16T10:34:02.696Z,5.86
2022-11-16T10:36:33.701Z,5.82
2022-11-16T10:39:02.549Z,5.80
2022-11-16T10:41:36.476Z,5.77
2022-11-16T10:44:15.936Z,5.84
2022-11-16T10:46:52.776Z,5.87
2022-11-16T10:49:29.252Z,5.88
2022-11-16T10:51:58.952Z,5.84
2022-11-16T10:54:26.892Z,5.85
2022-11-16T10:57:04.488Z,5.86
2022-11-16T10:59:40.321Z,5.86
2022-11-16T11:02:28.951Z,5.90
2022-11-16T11:05:09.202Z,5.84
2022-11-16T11:07:40.358Z,5.92
2022-11-16T11:10:30.644Z,5.87
2022-11-16T11:13:23.573Z,5.85
2022-11-16T11:15:52.314Z,5.90
2022-11-16T11:18:27.738Z,5.93
2022-11-16T11:21:08.572Z,5.95
2022-11-16T11:23:45.024Z,6.00
2022-11-16T11:26:35.845Z,5.94
2022-11-16T11:29:18.038Z,6.00
2022-11-16T11:31:51.147Z,5.97
2022-11-16T11:34:22.679Z,6.03
2022-11-16T11:36:53.967Z,6.00
2022-11-16T11:39:35.531Z,6.04
2022-11-16T11:42:24.319Z,6.03
2022-11-16T11:44:57.639Z,6.08
2022-11-16T11:48:11.098Z,6.11
2022-11-16T11:50:41.362Z,6.05
2022-11-16T11:53:18.015Z,6.13
2022-11-16T11:55:47.392Z,6.13
2022-11-16T11:58:19.313Z,6.12
2022-11-16T12:00:57.741Z,6.05
2022-11-16T12:03:58.891Z,6.16
2022-11-16T12:06:34.010Z,6.13
2022-11-16T12:09:22.186Z,6.12
2022-11-16T12:12:02.743Z,6.24
2022-11-16T12:14:43.392Z,6.22
2022-11-16T12:17:22.974Z,6.19
2022-11-16T12:20:09.499Z,6.18
2022-11-16T12:22:53.077Z,6.25
2022-11-16T12:25:26.405Z,6.25
2022-11-16T12:28:11.855Z,6.22
2022-11-16T12:30:49.536Z,6.27
2022-11-16T12:33:28.991Z,6.22
2022-11-16T12:36:02.933Z,6.25
2022-11-16T12:38:54.482Z,6.26
2022-11-16T12:41:55.820Z,6.32
2022-11-16T12:44:35.230Z,6.26
2022-11-16T12:47:14.156Z,6.25
2022-11-16T12:50:07.390Z,6.24
2022-11-16T12:52:48.023Z,6.22
2022-11-16T12:55:26.707Z,6.22
2022-11-16T12:58:08.496Z,6.19
2022-11-16T13:00:51.359Z,6.19
2022-11-16T13:03:24.468Z,6.20
2022-11-16T13:06:01.277Z,6.21
2022-11-16T13:09:02.359Z,6.22
2022-11-16T13:11:34.037Z,6.23
2022-11-16T13:14:06.316Z,6.13
2022-11-16T13:16:35.844Z,6.05
2022-11-16T13:19:06.736Z,6.10
2022-11-16T13:21:47.602Z,6.00
2022-11-16T13:24:27.186Z,6.00
2022-11-16T13:27:00.196Z,5.95
2022-11-16T13:29:37.057Z,5.96
2022-11-16T13:32:14.964Z,5.95
2022-11-16T13:34:43.285Z,5.92
2022-11-16T13:37:42.660Z,5.93
2022-11-16T13:40:21.436Z,5.96
2022-11-16T13:43:03.113Z,5.85
2022-11-16T13:45:35.152Z,5.81
2022-11-16T13:48:14.661Z,5.83
2022-11-16T13:50:49.435Z,5.80
2022-11-16T13:54:25.272Z,5.81
2022-11-16T13:56:13.819Z,5.76
2022-11-16T13:58:47.291Z,5.72
2022-11-16T14:01:16.255Z,5.73
2022-11-16T14:03:46.764Z,5.74
2022-11-16T14:06:59.275Z,5.70
2022-11-16T14:09:44.431Z,5.71
2022-11-16T14:12:52.728Z,5.70
2022-11-16T14:15:22.620Z,5.70
2022-11-16T14:17:52.154Z,5.74
2022-11-16T14:20:51.550Z,5.69
2022-11-16T14:23:37.531Z,5.71
2022-11-16T14:26:14.344Z,5.73
2022-11-16T14:28:53.943Z,5.67
2022-11-16T14:31:24.995Z,5.79
2022-11-16T14:33:55.772Z,5.71
2022-11-16T14:36:39.845Z,5.65
2022-11-16T14:39:35.253Z,5.73
2022-11-16T14:42:05.732Z,5.73
2022-11-16T14:44:38.823Z,5.76
2022-11-16T14:47:18.635Z,5.73
2022-11-16T14:49:47.760Z,5.73
2022-11-16T14:52:18.793Z,5.71
2022-11-16T14:54:51.977Z,5.73
2022-11-16T14:57:21.771Z,5.78
2022-11-16T14:59:50.171Z,5.79
2022-11-16T15:02:22.172Z,5.74
2022-11-16T15:04:52.452Z,5.79
2022-11-16T15:07:24.796Z,5.76
2022-11-16T15:09:56.175Z,5.73
2022-11-16T15:12:43.902Z,5.73
2022-11-16T15:15:16.868Z,5.80
2022-11-16T15:17:46.488Z,5.71
2022-11-16T15:20:20.336Z,5.71
2022-11-16T15:22:53.189Z,5.74
2022-11-16T15:25:29.413Z,5.79
2022-11-16T15:27:58.988Z,5.73
2022-11-16T15:30:29.280Z,5.73
2022-11-16T15:32:57.600Z,5.70
2022-11-16T15:35:29.055Z,5.67
2022-11-16T15:38:06.640Z,5.67
2022-11-16T15:40:35.726Z,5.70
2022-11-16T15:43:06.790Z,5.72
2022-11-16T15:45:35.529Z,5.76
2022-11-16T15:48:04.909Z,5.78
2022-11-16T15:50:33.105Z,5.72
2022-11-16T15:53:01.173Z,5.70
2022-11-16T15:55:38.656Z,5.76
2022-11-16T15:58:14.515Z,5.70
2022-11-16T16:00:42.915Z,5.60
2022-11-16T16:03:21.532Z,5.68
2022-11-16T16:05:49.863Z,5.68
2022-11-16T16:08:26.950Z,5.69
2022-11-16T16:11:06.454Z,5.67
2022-11-16T16:13:37.013Z,5.65
2022-11-16T16:16:24.921Z,5.72
2022-11-16T16:18:54.592Z,5.66
2022-11-16T16:21:22.970Z,5.68
2022-11-16T16:23:53.619Z,5.62
2022-11-16T16:26:24.343Z,5.67
2022-11-16T16:28:52.750Z,5.65
2022-11-16T16:31:21.103Z,5.69
2022-11-16T16:33:49.910Z,5.63
2022-11-16T16:36:17.854Z,5.62
2022-11-16T16:38:45.795Z,5.64
2022-11-16T16:41:24.081Z,5.43
2022-11-16T16:43:54.196Z,5.60
2022-11-16T16:46:22.130Z,5.50
2022-11-16T16:48:50.192Z,5.56
2022-11-16T16:51:18.213Z,5.53
2022-11-16T16:53:46.153Z,5.56
2022-11-16T16:56:16.315Z,5.54
2022-11-16T16:58:44.323Z,5.46
2022-11-16T17:01:14.069Z,5.46
2022-11-16T17:03:42.192Z,5.54
2022-11-16T17:06:10.522Z,5.50
2022-11-16T17:08:39.367Z,5.54
2022-11-16T17:11:07.358Z,5.50
2022-11-16T17:13:35.565Z,5.50
2022-11-16T17:16:06.689Z,5.46
2022-11-16T17:18:36.080Z,5.47
2022-11-16T17:21:05.674Z,5.44
2022-11-16T17:23:34.229Z,5.41
2022-11-16T17:26:05.607Z,5.41
2022-11-16T17:28:34.053Z,5.34
2022-11-16T17:31:03.080Z,5.31
2022-11-16T17:33:36.106Z,5.29
2022-11-16T17:36:05.368Z,5.38
2022-11-16T17:38:33.783Z,5.55
2022-11-16T17:41:06.577Z,5.46
2022-11-16T17:43:35.847Z,5.43
2022-11-16T17:46:06.124Z,5.43
2022-11-16T17:48:36.479Z,5.47
2022-11-16T17:51:05.396Z,5.37
2022-11-16T17:53:34.762Z,5.26
2022-11-16T17:56:03.684Z,5.24
2022-11-16T17:58:32.295Z,5.20
2022-11-16T18:01:01.096Z,5.21
2022-11-16T18:03:29.315Z,5.14
2022-11-16T18:06:10.782Z,5.03
2022-11-16T18:08:38.743Z,5.05
2022-11-16T18:11:07.769Z,5.00
2022-11-16T18:13:36.540Z,4.97
2022-11-16T18:16:06.580Z,4.91
2022-11-16T18:18:35.129Z,4.97
2022-11-16T18:21:03.211Z,4.93
2022-11-16T18:23:34.363Z,4.91
2022-11-16T18:26:03.501Z,4.97
2022-11-16T18:28:31.472Z,4.91
2022-11-16T18:31:04.311Z,4.86
2022-11-16T18:33:32.987Z,4.91
2022-11-16T18:36:01.410Z,4.86
2022-11-16T18:38:29.439Z,4.83
2022-11-16T18:41:06.578Z,4.80
2022-11-16T18:43:35.302Z,4.85
2022-11-16T18:46:03.729Z,4.85
2022-11-16T18:48:31.971Z,4.81
2022-11-16T18:51:00.152Z,4.79
2022-11-16T18:53:28.688Z,4.72
2022-11-16T18:55:58.319Z,4.76
2022-11-16T19:01:18.699Z,4.70
2022-11-16T19:03:46.840Z,4.67
2022-11-16T19:06:17.059Z,4.68
2022-11-16T19:08:51.785Z,4.63
2022-11-16T19:11:24.335Z,4.63
2022-11-16T19:13:55.647Z,4.44
2022-11-16T19:16:24.469Z,4.58
2022-11-16T19:18:52.870Z,4.54
2022-11-16T19:21:21.834Z,4.52
2022-11-16T19:23:51.700Z,4.52
2022-11-16T19:26:22.824Z,4.48
2022-11-16T19:28:52.167Z,4.56
2022-11-16T19:31:23.331Z,4.53
2022-11-16T19:33:55.004Z,4.51
2022-11-16T19:36:23.447Z,4.48
2022-11-16T19:38:51.627Z,4.55
2022-11-16T19:41:21.566Z,4.44
2022-11-16T19:43:51.322Z,4.31
2022-11-16T19:46:21.519Z,4.42
2022-11-16T19:48:50.142Z,4.44
2022-11-16T19:51:20.150Z,4.46
2022-11-16T19:53:48.438Z,4.44
2022-11-16T19:56:18.524Z,4.38
2022-11-16T19:58:47.158Z,4.45
2022-11-16T20:01:17.130Z,4.39
2022-11-16T20:03:47.353Z,4.30
2022-11-16T20:06:17.944Z,4.27
2022-11-16T20:08:49.198Z,4.20
2022-11-16T20:11:20.377Z,4.21
2022-11-16T20:13:49.819Z,4.24
2022-11-16T20:16:19.801Z,4.07
2022-11-16T20:18:49.709Z,4.16
2022-11-16T20:21:22.405Z,4.13
2022-11-16T20:23:51.552Z,4.15
2022-11-16T20:26:20.819Z,4.06
2022-11-16T20:28:51.034Z,4.03
2022-11-16T20:31:21.284Z,3.98
2022-11-16T20:33:52.905Z,4.08
2022-11-16T20:36:22.937Z,4.05
2022-11-16T20:38:51.215Z,3.97
2022-11-16T20:41:21.230Z,4.00
2022-11-16T20:43:51.948Z,4.02
2022-11-16T20:46:21.649Z,3.96
2022-11-16T20:48:51.039Z,3.99
2022-11-16T20:51:20.598Z,3.96
2022-11-16T20:53:49.906Z,3.96
2022-11-16T20:56:20.328Z,3.73
2022-11-16T20:58:49.308Z,3.94
2022-11-16T21:01:19.488Z,3.96
2022-11-16T21:03:48.004Z,3.96
2022-11-16T21:06:17.311Z,4.00
2022-11-16T21:08:45.269Z,3.98
2022-11-16T21:11:14.460Z,3.97
2022-11-16T21:14:08.184Z,4.00
2022-11-16T21:16:36.353Z,4.03
2022-11-16T21:19:05.208Z,4.05
2022-11-16T21:21:34.952Z,4.04
2022-11-16T21:24:03.092Z,4.06
2022-11-16T21:26:32.668Z,4.03
2022-11-16T21:29:01.890Z,3.97
2022-11-16T21:31:32.651Z,3.99
2022-11-16T21:34:01.555Z,3.95
2022-11-16T21:36:31.030Z,4.03
2022-11-16T21:39:00.764Z,4.02
2022-11-16T21:41:29.097Z,4.00
2022-11-16T21:43:57.241Z,4.03
2022-11-16T21:46:27.282Z,3.95
2022-11-16T21:48:56.610Z,4.02
2022-11-16T21:51:26.774Z,4.03
2022-11-16T21:53:55.158Z,4.00
2022-11-16T21:56:26.292Z,3.82
2022-11-16T21:58:54.800Z,4.03
2022-11-16T22:01:23.610Z,3.96
2022-11-16T22:04:05.610Z,3.97
2022-11-16T22:06:50.992Z,4.01
2022-11-16T22:09:18.955Z,4.05
2022-11-16T22:11:48.316Z,4.05
2022-11-16T22:14:16.239Z,4.03
2022-11-16T22:16:44.245Z,4.06
2022-11-16T22:19:12.232Z,4.03
2022-11-16T22:21:40.201Z,3.98
2022-11-16T22:24:08.827Z,4.00
2022-11-16T22:26:38.065Z,4.07
2022-11-16T22:29:07.409Z,4.04
2022-11-16T22:31:36.101Z,3.98
2022-11-16T22:34:04.249Z,4.00
2022-11-16T22:36:32.191Z,4.00
2022-11-16T22:39:00.175Z,3.98
2022-11-16T22:41:28.107Z,4.02
2022-11-16T22:43:56.073Z,3.98
2022-11-16T22:46:25.439Z,3.99
2022-11-16T22:48:53.459Z,4.00
2022-11-16T22:51:23.890Z,4.00
2022-11-16T22:53:54.033Z,3.92
2022-11-16T22:56:22.217Z,3.94
2022-11-16T22:58:50.495Z,3.95
2022-11-16T23:01:18.763Z,3.89
2022-11-16T23:03:49.045Z,3.75
2022-11-16T23:06:17.591Z,3.93
2022-11-16T23:08:45.953Z,3.93
2022-11-16T23:11:33.270Z,3.91
2022-11-16T23:14:18.865Z,3.99
2022-11-16T23:16:47.560Z,3.90
2022-11-16T23:19:36.512Z,3.91
2022-11-16T23:22:23.077Z,3.89
2022-11-16T23:25:10.998Z,3.98
2022-11-16T23:27:43.547Z,3.89
2022-11-16T23:30:13.564Z,3.95
2022-11-16T23:32:41.861Z,3.94
2022-11-16T23:35:11.719Z,3.94
2022-11-16T23:37:54.654Z,3.91
2022-11-16T23:40:24.563Z,3.89
2022-11-16T23:43:10.646Z,3.93
2022-11-16T23:45:38.755Z,3.93
2022-11-16T23:48:07.886Z,3.92
2022-11-16T23:50:37.585Z,3.78
2022-11-16T23:53:07.426Z,3.84
2022-11-16T23:55:36.397Z,3.89
2022-11-16T23:58:05.200Z,3.89
